Главная страница
METAR-TAF:

METAR-TAF

Аэропорты :

Кривой Рог, Украина

широта: 48-03N, долгота: 033-13-12E, высота над уровнем моря: 124 м

Текущие метеонаблюдения

Эта сводка был подготовлена 21 минут назад, в 07:00 UTC
Ветер 6 Узел от восточно-юго-восточный, изменяющийся между восточный и юго-юго-восточный
Температура 18°C
Влажность 52%
Давление 1016 hPa
Видимость 10 км и более
Нет облачности ниже 1500 м, и нет кучево-дождевой облачности

METAR: UKDR 290700Z 11003MPS 080V150 CAVOK 18/08 Q1016 R18/09//70 NOSIG

Время: 10:21 (07:21 UTC)

Прогноз

Эта сводка был подготовлена 2 часа и 18 минут назад, в 05:03 UTC
Прогноз действительный с 29-го 06 UTC до 30-го 06 UTC
Ветер 6 Узел от юго-восточный
Видимость 10 км и более
Нет облачности ниже 1500 м, и нет кучево-дождевой облачности
временами
С 29-го 09 UTC до 29-го 15 UTC
Ветер 10 Узел от юго-юго-восточный с порывами до 19 Узел

TAF: UKDR 290503Z 2906/3006 13003MPS CAVOK TEMPO 2909/2915 15005G10MPS

Метеонаблюдения и прогнозы для более 4000 аэропортов (сводки METAR и TAF).

Имеющиеся станции представлены на карте желтыми и красными точками.

Чтобы увидеть название станции, наведите на нее мышь.

Затем щелкните, чтобы увидеть метеонаблюдения и метеопрогнозы.

Управление картой: чтобы увеличить масштаб, щелкните зеленые кнопки с черным крестиком; чтобы уменьшить масштаб, щелкните зеленую кнопку с тире; для просмотра соседних карт щелкайте зеленые стрелки.


METAR-TAF: